createdAt,value
2023-03-19T00:01:38.033Z,-0.07
2023-03-19T00:04:08.273Z,-0.06
2023-03-19T00:06:38.525Z,-0.08
2023-03-19T00:09:07.745Z,-0.12
2023-03-19T00:11:38.164Z,-0.16
2023-03-19T00:14:08.226Z,-0.22
2023-03-19T00:16:38.564Z,-0.26
2023-03-19T00:19:10.319Z,-0.30
2023-03-19T00:21:40.161Z,-0.34
2023-03-19T00:24:10.289Z,-0.37
2023-03-19T00:26:40.530Z,-0.40
2023-03-19T00:29:10.624Z,-0.45
2023-03-19T00:31:41.136Z,-0.49
2023-03-19T00:34:12.060Z,-0.52
2023-03-19T00:36:41.857Z,-0.55
2023-03-19T00:39:11.888Z,-0.59
2023-03-19T00:41:41.750Z,-0.62
2023-03-19T00:44:10.927Z,-0.66
2023-03-19T00:46:41.136Z,-0.70
2023-03-19T00:49:11.328Z,-0.73
2023-03-19T00:51:44.265Z,-0.75
2023-03-19T00:54:19.498Z,-0.76
2023-03-19T00:56:50.606Z,-0.77
2023-03-19T00:59:20.956Z,-0.77
2023-03-19T01:01:51.806Z,-0.81
2023-03-19T01:04:22.174Z,-0.88
2023-03-19T01:06:52.138Z,-0.96
2023-03-19T01:09:21.610Z,-1.03
2023-03-19T01:11:53.740Z,-1.08
2023-03-19T01:14:23.725Z,-1.12
2023-03-19T01:16:55.360Z,-1.14
2023-03-19T01:19:33.934Z,-1.17
2023-03-19T01:22:05.051Z,-1.20
2023-03-19T01:24:35.868Z,-1.22
2023-03-19T01:27:06.307Z,-1.24
2023-03-19T01:29:43.730Z,-1.25
2023-03-19T01:32:21.344Z,-1.29
2023-03-19T01:35:07.821Z,-1.33
2023-03-19T01:37:38.541Z,-1.34
2023-03-19T01:40:12.506Z,-1.36
2023-03-19T01:42:54.743Z,-1.38
2023-03-19T01:45:45.272Z,-1.39
2023-03-19T01:48:55.774Z,-1.46
2023-03-19T01:51:29.502Z,-1.52
2023-03-19T01:54:14.059Z,-1.56
2023-03-19T01:57:09.170Z,-1.60
2023-03-19T02:00:02.174Z,-1.61
2023-03-19T02:02:54.673Z,-1.62
2023-03-19T02:05:48.316Z,-1.62
2023-03-19T02:08:19.833Z,-1.61
2023-03-19T02:10:51.073Z,-1.60
2023-03-19T02:13:20.922Z,-1.59
2023-03-19T02:15:52.317Z,-1.58
2023-03-19T02:18:23.276Z,-1.58
2023-03-19T02:21:12.269Z,-1.57
2023-03-19T02:23:54.869Z,-1.57
2023-03-19T02:26:37.260Z,-1.58
2023-03-19T02:29:09.219Z,-1.58
2023-03-19T02:31:39.405Z,-1.58
2023-03-19T02:34:21.870Z,-1.61
2023-03-19T02:37:04.526Z,-1.64
2023-03-19T02:39:34.005Z,-1.65
2023-03-19T02:42:04.816Z,-1.68
2023-03-19T02:44:35.125Z,-1.73
2023-03-19T02:47:07.014Z,-1.76
2023-03-19T02:49:37.428Z,-1.82
2023-03-19T02:52:07.608Z,-1.85
2023-03-19T02:54:40.049Z,-1.89
2023-03-19T02:57:11.155Z,-1.92
2023-03-19T02:59:41.758Z,-1.94
2023-03-19T03:02:11.419Z,-1.97
2023-03-19T03:04:42.531Z,-1.98
2023-03-19T03:07:12.608Z,-1.99
2023-03-19T03:09:42.636Z,-2.01
2023-03-19T03:12:13.380Z,-2.03
2023-03-19T03:14:55.298Z,-2.07
2023-03-19T03:17:26.022Z,-2.12
2023-03-19T03:19:57.627Z,-2.17
2023-03-19T03:22:42.657Z,-2.20
2023-03-19T03:25:13.413Z,-2.22
2023-03-19T03:27:53.885Z,-2.26
2023-03-19T03:30:27.058Z,-2.29
2023-03-19T03:32:57.020Z,-2.31
2023-03-19T03:35:30.419Z,-2.34
2023-03-19T03:38:09.125Z,-2.37
2023-03-19T03:40:39.877Z,-2.39
2023-03-19T03:43:10.955Z,-2.42
2023-03-19T03:45:44.970Z,-2.43
2023-03-19T03:48:18.495Z,-2.45
2023-03-19T03:50:49.726Z,-2.48
2023-03-19T03:53:22.753Z,-2.52
2023-03-19T03:55:56.020Z,-2.54
2023-03-19T03:58:38.345Z,-2.57
2023-03-19T04:01:20.028Z,-2.60
2023-03-19T04:03:51.424Z,-2.63
2023-03-19T04:06:24.208Z,-2.64
2023-03-19T04:09:10.026Z,-2.63
2023-03-19T04:11:42.225Z,-2.61
2023-03-19T04:14:13.394Z,-2.59
2023-03-19T04:16:47.713Z,-2.57
2023-03-19T04:19:18.184Z,-2.57
2023-03-19T04:21:47.818Z,-2.55
2023-03-19T04:24:18.476Z,-2.53
2023-03-19T04:26:57.923Z,-2.51
2023-03-19T04:29:29.437Z,-2.49
2023-03-19T04:32:10.585Z,-2.44
2023-03-19T04:34:45.978Z,-2.42
2023-03-19T04:37:16.366Z,-2.41
2023-03-19T04:39:55.101Z,-2.40
2023-03-19T04:42:28.516Z,-2.39
2023-03-19T04:45:18.678Z,-2.40
2023-03-19T04:47:54.449Z,-2.41
2023-03-19T04:50:31.130Z,-2.43
2023-03-19T04:53:02.651Z,-2.44
2023-03-19T04:55:33.089Z,-2.41
2023-03-19T04:58:24.906Z,-2.40
2023-03-19T05:01:08.891Z,-2.41
2023-03-19T05:03:58.892Z,-2.41
2023-03-19T05:06:32.681Z,-2.42
2023-03-19T05:09:16.805Z,-2.40
2023-03-19T05:11:48.232Z,-2.37
2023-03-19T05:14:35.188Z,-2.35
2023-03-19T05:17:44.482Z,-2.31
2023-03-19T05:20:37.750Z,-2.26
2023-03-19T05:23:18.708Z,-2.21
2023-03-19T05:26:03.022Z,-2.13
2023-03-19T05:29:00.759Z,-2.03
2023-03-19T05:31:39.679Z,-1.92
2023-03-19T05:34:13.602Z,-1.78
2023-03-19T05:36:45.199Z,-1.63
2023-03-19T05:39:21.765Z,-1.42
2023-03-19T05:41:54.222Z,-1.20
2023-03-19T05:44:32.343Z,-0.98
2023-03-19T05:47:42.724Z,-0.70
2023-03-19T05:50:15.157Z,-0.47
2023-03-19T05:53:08.901Z,-0.19
2023-03-19T05:55:39.587Z,0.06
2023-03-19T05:58:18.813Z,0.32
2023-03-19T06:00:48.980Z,0.57
2023-03-19T06:03:18.774Z,0.80
2023-03-19T06:05:51.868Z,1.03
2023-03-19T06:08:36.344Z,1.29
2023-03-19T06:11:19.330Z,1.55
2023-03-19T06:13:54.494Z,1.80
2023-03-19T06:16:24.062Z,1.99
2023-03-19T06:18:55.369Z,2.18
2023-03-19T06:21:29.907Z,2.34
2023-03-19T06:24:02.980Z,2.51
2023-03-19T06:26:36.238Z,2.69
2023-03-19T06:29:14.922Z,2.87
2023-03-19T06:31:48.765Z,3.06
2023-03-19T06:34:43.843Z,3.27
2023-03-19T06:37:17.399Z,3.44
2023-03-19T06:39:47.289Z,3.58
2023-03-19T06:42:17.642Z,3.71
2023-03-19T06:44:48.370Z,3.88
2023-03-19T06:47:18.211Z,4.05
2023-03-19T06:49:48.047Z,4.18
2023-03-19T06:52:17.249Z,4.33
2023-03-19T06:54:46.868Z,4.45
2023-03-19T06:57:15.912Z,4.53
2023-03-19T06:59:44.838Z,4.60
2023-03-19T07:02:14.010Z,4.68
2023-03-19T07:04:43.815Z,4.79
2023-03-19T07:07:13.196Z,4.90
2023-03-19T07:09:43.918Z,4.98
2023-03-19T07:12:16.876Z,5.10
2023-03-19T07:14:46.220Z,5.22
2023-03-19T07:17:16.875Z,5.35
2023-03-19T07:19:48.078Z,5.43
2023-03-19T07:22:17.621Z,5.54
2023-03-19T07:24:47.887Z,5.59
2023-03-19T07:27:32.163Z,5.71
2023-03-19T07:30:08.209Z,5.82
2023-03-19T07:32:37.647Z,5.84
2023-03-19T07:35:14.750Z,5.83
2023-03-19T07:38:02.246Z,5.83
2023-03-19T07:40:32.999Z,5.91
2023-03-19T07:43:17.275Z,6.00
2023-03-19T07:45:54.415Z,6.14
2023-03-19T07:48:25.084Z,6.33
2023-03-19T07:50:59.046Z,6.58
2023-03-19T07:53:28.542Z,6.84
2023-03-19T07:55:58.469Z,7.15
2023-03-19T07:58:31.360Z,7.40
2023-03-19T08:01:05.643Z,7.57
2023-03-19T08:03:36.006Z,7.76
2023-03-19T08:06:06.297Z,7.99
2023-03-19T08:08:41.650Z,8.24
2023-03-19T08:11:17.886Z,8.40
2023-03-19T08:13:47.920Z,8.47
2023-03-19T08:16:19.792Z,8.66
2023-03-19T08:18:52.758Z,8.87
2023-03-19T08:21:27.920Z,9.05
2023-03-19T08:23:57.563Z,9.29
2023-03-19T08:26:28.845Z,9.47
2023-03-19T08:28:58.525Z,9.66
2023-03-19T08:31:27.781Z,9.80
2023-03-19T08:34:00.905Z,9.97
2023-03-19T08:36:33.963Z,10.15
2023-03-19T08:39:06.729Z,10.31
2023-03-19T08:41:35.835Z,10.55
2023-03-19T08:44:05.442Z,10.82
2023-03-19T08:46:35.589Z,11.07
2023-03-19T08:49:06.041Z,11.25
2023-03-19T08:51:36.768Z,11.42
2023-03-19T08:54:15.390Z,11.59
2023-03-19T08:56:45.352Z,11.72
2023-03-19T08:59:14.408Z,11.85
2023-03-19T09:01:44.751Z,11.99
2023-03-19T09:04:15.762Z,12.18
2023-03-19T09:07:03.078Z,12.35
2023-03-19T09:09:33.089Z,12.51
2023-03-19T09:12:02.313Z,12.65
2023-03-19T09:14:33.944Z,12.84
2023-03-19T09:17:03.676Z,13.01
2023-03-19T09:19:53.439Z,13.27
2023-03-19T09:22:22.711Z,13.45
2023-03-19T09:24:52.501Z,13.64
2023-03-19T09:27:22.299Z,13.60
2023-03-19T09:29:52.900Z,13.61
2023-03-19T09:32:22.654Z,13.77
2023-03-19T09:38:17.888Z,14.09
2023-03-19T09:40:51.046Z,14.25
2023-03-19T09:43:38.322Z,14.49
2023-03-19T09:46:33.132Z,14.72
2023-03-19T09:49:14.032Z,14.93
2023-03-19T09:51:53.663Z,15.14
2023-03-19T09:57:44.817Z,15.57
2023-03-19T10:00:24.440Z,15.74
2023-03-19T10:03:08.546Z,15.82
2023-03-19T10:05:46.105Z,16.08
2023-03-19T10:08:52.142Z,16.34
2023-03-19T10:11:51.054Z,16.55
2023-03-19T10:14:44.383Z,16.64
2023-03-19T10:17:32.391Z,16.86
2023-03-19T10:20:47.157Z,17.14
2023-03-19T10:24:11.032Z,17.51
2023-03-19T10:26:47.993Z,17.75
2023-03-19T10:29:24.684Z,18.01
2023-03-19T10:32:21.860Z,18.26
2023-03-19T10:34:56.200Z,18.46
2023-03-19T10:37:29.391Z,18.68
2023-03-19T10:40:01.180Z,18.96
2023-03-19T10:42:57.298Z,19.01
2023-03-19T10:45:34.340Z,19.24
2023-03-19T10:48:05.738Z,19.59
2023-03-19T10:50:43.835Z,19.86
2023-03-19T10:53:16.213Z,19.99
2023-03-19T10:55:49.333Z,20.11
2023-03-19T10:58:21.514Z,20.19
2023-03-19T11:00:59.256Z,19.90
2023-03-19T11:03:48.851Z,19.94
2023-03-19T11:06:24.494Z,20.27
2023-03-19T11:08:57.952Z,20.60
2023-03-19T11:11:37.256Z,20.92
2023-03-19T11:14:29.134Z,21.07
2023-03-19T11:17:05.766Z,21.09
2023-03-19T11:19:49.571Z,21.08
2023-03-19T11:22:39.144Z,21.09
2023-03-19T11:25:26.057Z,21.15
2023-03-19T11:28:09.438Z,21.38
2023-03-19T11:31:10.774Z,21.59
2023-03-19T11:34:01.457Z,21.94
2023-03-19T11:37:14.215Z,22.05
2023-03-19T11:40:09.461Z,22.12
2023-03-19T11:43:00.837Z,22.39
2023-03-19T11:45:44.941Z,22.82
2023-03-19T11:48:42.933Z,23.27
2023-03-19T11:51:27.657Z,23.40
2023-03-19T11:54:00.164Z,23.50
2023-03-19T11:57:04.855Z,23.42
2023-03-19T11:59:45.645Z,23.35
2023-03-19T12:03:01.179Z,23.43
2023-03-19T12:06:26.504Z,23.56
2023-03-19T12:09:08.433Z,23.73
2023-03-19T12:11:40.475Z,24.02
2023-03-19T12:14:16.814Z,24.15
2023-03-19T12:17:04.834Z,24.15
2023-03-19T12:19:59.706Z,24.17
2023-03-19T12:22:54.417Z,24.30
2023-03-19T12:25:38.418Z,24.54
2023-03-19T12:28:25.353Z,24.84
2023-03-19T12:31:31.519Z,25.05
2023-03-19T12:34:26.660Z,25.21
2023-03-19T12:37:14.650Z,25.27
2023-03-19T12:40:08.224Z,25.46
2023-03-19T12:42:42.528Z,25.79
2023-03-19T12:45:44.351Z,26.06
2023-03-19T12:48:29.351Z,26.46
2023-03-19T12:51:09.904Z,26.71
2023-03-19T12:54:09.609Z,26.90
2023-03-19T12:57:02.280Z,26.90
2023-03-19T12:59:39.033Z,26.88
2023-03-19T13:02:35.331Z,26.77
2023-03-19T13:05:23.437Z,26.70
2023-03-19T13:08:19.754Z,26.78
2023-03-19T13:10:49.130Z,26.88
2023-03-19T13:13:44.469Z,26.96
2023-03-19T13:16:36.179Z,27.10
2023-03-19T13:19:30.765Z,27.23
2023-03-19T13:22:05.014Z,27.32
2023-03-19T13:24:45.013Z,27.38
2023-03-19T13:27:25.683Z,27.37
2023-03-19T13:30:12.635Z,27.46
2023-03-19T13:32:46.913Z,27.49
2023-03-19T13:35:40.088Z,27.59
2023-03-19T13:38:21.473Z,27.79
2023-03-19T13:40:54.853Z,27.49
2023-03-19T13:43:49.006Z,27.54
2023-03-19T13:53:59.905Z,27.73
2023-03-19T13:56:30.858Z,27.72
2023-03-19T13:59:18.701Z,27.68
2023-03-19T14:01:53.208Z,27.72
2023-03-19T14:04:26.714Z,27.52
2023-03-19T14:07:00.159Z,27.34
2023-03-19T14:10:07.375Z,27.26
2023-03-19T14:12:44.605Z,27.18
2023-03-19T14:15:13.594Z,27.37
2023-03-19T14:17:56.603Z,27.49
2023-03-19T14:20:37.551Z,27.64
2023-03-19T14:23:23.328Z,27.68
2023-03-19T14:26:03.141Z,27.68
2023-03-19T14:28:50.551Z,27.79
2023-03-19T14:31:39.112Z,27.91
2023-03-19T14:34:11.636Z,27.87
2023-03-19T14:36:50.062Z,27.92
2023-03-19T14:39:24.875Z,27.96
2023-03-19T14:42:15.408Z,28.03
2023-03-19T14:45:09.600Z,28.02
2023-03-19T14:48:20.104Z,27.84
2023-03-19T14:51:07.392Z,27.69
2023-03-19T14:54:21.671Z,27.57
2023-03-19T15:00:56.354Z,27.15
2023-03-19T15:03:38.471Z,27.07
2023-03-19T15:06:40.792Z,26.95
2023-03-19T15:09:35.032Z,26.90
2023-03-19T15:12:32.110Z,26.70
2023-03-19T15:15:28.247Z,26.43
2023-03-19T15:18:04.481Z,26.18
2023-03-19T15:20:50.503Z,25.92
2023-03-19T15:24:09.532Z,25.64
2023-03-19T15:27:03.431Z,25.18
2023-03-19T15:29:37.586Z,24.58
2023-03-19T15:32:11.705Z,24.03
2023-03-19T15:37:42.535Z,22.57
2023-03-19T15:40:16.483Z,22.04
2023-03-19T15:42:49.121Z,21.48
2023-03-19T15:46:20.388Z,20.94
2023-03-19T15:49:42.436Z,20.16
2023-03-19T15:52:16.174Z,19.42
2023-03-19T15:54:46.778Z,18.92
2023-03-19T15:57:18.859Z,18.46
2023-03-19T15:59:48.317Z,18.01
2023-03-19T16:02:31.995Z,17.64
2023-03-19T16:05:20.826Z,17.19
2023-03-19T16:07:58.451Z,16.75
2023-03-19T16:10:29.273Z,16.51
2023-03-19T16:13:05.693Z,16.30
2023-03-19T16:15:45.695Z,16.09
2023-03-19T16:18:21.941Z,15.89
2023-03-19T16:21:30.183Z,15.73
2023-03-19T16:24:03.037Z,15.48
2023-03-19T16:26:43.922Z,15.25
2023-03-19T16:29:25.888Z,14.99
2023-03-19T16:32:00.033Z,14.76
2023-03-19T16:35:06.559Z,14.56
2023-03-19T16:37:41.454Z,14.31
2023-03-19T16:40:14.312Z,14.09
2023-03-19T16:42:53.215Z,13.83
2023-03-19T16:45:32.481Z,13.64
2023-03-19T16:48:06.751Z,13.43
2023-03-19T16:50:42.481Z,13.28
2023-03-19T16:53:25.302Z,13.15
2023-03-19T16:55:57.255Z,12.85
2023-03-19T16:58:35.306Z,12.61
2023-03-19T17:01:21.592Z,12.36
2023-03-19T17:03:54.530Z,12.18
2023-03-19T17:06:35.274Z,12.00
2023-03-19T17:09:05.169Z,11.70
2023-03-19T17:11:41.249Z,11.55
2023-03-19T17:14:23.039Z,11.37
2023-03-19T17:16:54.791Z,11.14
2023-03-19T17:19:37.235Z,10.97
2023-03-19T17:22:07.337Z,10.72
2023-03-19T17:24:37.180Z,10.54
2023-03-19T17:27:07.068Z,10.41
2023-03-19T17:29:36.364Z,10.27
2023-03-19T17:32:14.653Z,10.17
2023-03-19T17:34:44.149Z,10.07
2023-03-19T17:37:17.206Z,9.98
2023-03-19T17:39:46.899Z,9.84
2023-03-19T17:42:26.654Z,9.75
2023-03-19T17:45:01.384Z,9.67
2023-03-19T17:48:17.434Z,9.60
2023-03-19T17:50:47.287Z,9.52
2023-03-19T17:53:19.188Z,9.46
2023-03-19T17:55:48.226Z,9.40
2023-03-19T17:58:21.684Z,9.35
2023-03-19T18:00:52.769Z,9.30
2023-03-19T18:03:25.174Z,9.20
2023-03-19T18:05:54.920Z,9.15
2023-03-19T18:08:24.513Z,9.08
2023-03-19T18:10:53.670Z,9.03
2023-03-19T18:13:28.565Z,8.95
2023-03-19T18:15:59.235Z,8.86
2023-03-19T18:18:29.684Z,8.80
2023-03-19T18:21:00.657Z,8.74
2023-03-19T18:23:34.460Z,8.61
2023-03-19T18:26:04.036Z,8.52
2023-03-19T18:28:33.355Z,8.42
2023-03-19T18:31:03.161Z,8.32
2023-03-19T18:33:35.280Z,8.25
2023-03-19T18:36:04.687Z,8.16
2023-03-19T18:38:34.726Z,8.08
2023-03-19T18:41:07.607Z,8.02
2023-03-19T18:43:40.156Z,7.96
2023-03-19T18:46:32.478Z,7.89
2023-03-19T18:49:32.466Z,7.81
2023-03-19T18:52:03.876Z,7.71
2023-03-19T18:55:14.609Z,7.62
2023-03-19T18:57:57.625Z,7.54
2023-03-19T19:00:49.585Z,7.46
2023-03-19T19:03:29.769Z,7.33
2023-03-19T19:06:03.319Z,7.26
2023-03-19T19:08:32.484Z,7.18
2023-03-19T19:11:10.404Z,7.08
2023-03-19T19:13:55.223Z,6.98
2023-03-19T19:16:37.846Z,6.88
2023-03-19T19:19:24.251Z,6.78
2023-03-19T19:21:54.102Z,6.68
2023-03-19T19:24:24.839Z,6.64
2023-03-19T19:27:04.776Z,6.69
2023-03-19T19:29:34.781Z,6.52
2023-03-19T19:36:00.013Z,6.18
2023-03-19T19:38:30.755Z,6.07
2023-03-19T19:41:02.173Z,5.97
2023-03-19T19:43:39.754Z,5.93
2023-03-19T19:46:13.491Z,5.85
2023-03-19T19:48:45.543Z,5.77
2023-03-19T19:51:25.557Z,5.70
2023-03-19T19:53:56.417Z,5.59
2023-03-19T19:56:29.924Z,5.54
2023-03-19T19:59:06.908Z,5.52
2023-03-19T20:01:54.718Z,5.50
2023-03-19T20:04:30.466Z,5.49
2023-03-19T20:07:00.293Z,5.50
2023-03-19T20:09:33.348Z,5.49
2023-03-19T20:12:36.494Z,5.48
2023-03-19T20:15:21.839Z,5.45
2023-03-19T20:17:55.830Z,5.40
2023-03-19T20:20:28.855Z,5.35
2023-03-19T20:23:04.509Z,5.29
2023-03-19T20:25:39.865Z,5.24
2023-03-19T20:28:24.787Z,5.20
2023-03-19T20:30:57.733Z,5.14
2023-03-19T20:33:27.766Z,5.07
2023-03-19T20:35:58.162Z,4.99
2023-03-19T20:38:29.789Z,4.92
2023-03-19T20:41:02.184Z,4.84
2023-03-19T20:43:38.092Z,4.81
2023-03-19T20:46:08.231Z,4.76
2023-03-19T20:48:42.554Z,4.71
2023-03-19T20:51:20.370Z,4.65
2023-03-19T20:54:00.953Z,4.60
2023-03-19T20:56:31.816Z,4.56
2023-03-19T20:59:06.211Z,4.51
2023-03-19T21:01:35.920Z,4.51
2023-03-19T21:04:11.026Z,4.39
2023-03-19T21:06:52.397Z,4.31
2023-03-19T21:09:26.328Z,4.27
2023-03-19T21:11:56.076Z,4.24
2023-03-19T21:14:27.454Z,4.17
2023-03-19T21:16:57.371Z,4.16
2023-03-19T21:19:26.698Z,4.15
2023-03-19T21:21:57.778Z,4.14
2023-03-19T21:24:28.270Z,4.13
2023-03-19T21:27:26.161Z,4.13
2023-03-19T21:29:56.124Z,4.12
2023-03-19T21:32:28.298Z,4.11
2023-03-19T21:35:00.183Z,4.09
2023-03-19T21:37:30.862Z,4.07
2023-03-19T21:40:01.236Z,4.04
2023-03-19T21:42:34.563Z,4.02
2023-03-19T21:45:04.035Z,3.97
2023-03-19T21:47:33.873Z,3.92
2023-03-19T21:50:03.041Z,3.87
2023-03-19T21:52:42.798Z,3.83
2023-03-19T21:55:20.010Z,3.79
2023-03-19T21:57:49.777Z,3.74
2023-03-19T22:00:20.628Z,3.70
2023-03-19T22:02:51.421Z,3.69
2023-03-19T22:05:25.577Z,3.69
2023-03-19T22:07:56.119Z,3.65
2023-03-19T22:10:29.413Z,3.62
2023-03-19T22:13:00.432Z,3.57
2023-03-19T22:15:37.797Z,3.53
2023-03-19T22:18:16.077Z,3.52
2023-03-19T22:20:47.701Z,3.49
2023-03-19T22:23:19.333Z,3.45
2023-03-19T22:25:51.608Z,3.44
2023-03-19T22:28:35.323Z,3.43
2023-03-19T22:31:05.599Z,3.41
2023-03-19T22:33:35.857Z,3.39
2023-03-19T22:36:06.425Z,3.36
2023-03-19T22:38:35.635Z,3.35
2023-03-19T22:41:13.966Z,3.33
2023-03-19T22:43:45.921Z,3.31
2023-03-19T22:46:18.750Z,3.28
2023-03-19T22:48:57.650Z,3.23
2023-03-19T22:51:31.161Z,3.17
2023-03-19T22:54:03.251Z,3.10
2023-03-19T22:56:32.548Z,3.05
2023-03-19T22:59:02.740Z,3.00
2023-03-19T23:01:38.436Z,2.95
2023-03-19T23:04:29.450Z,2.92
2023-03-19T23:07:01.120Z,2.91
2023-03-19T23:09:36.760Z,2.90
2023-03-19T23:14:37.283Z,2.88
2023-03-19T23:17:19.915Z,2.86
2023-03-19T23:19:50.860Z,2.83
2023-03-19T23:22:21.316Z,2.81
2023-03-19T23:24:51.138Z,2.82
2023-03-19T23:27:26.616Z,2.80
2023-03-19T23:29:57.022Z,2.79
2023-03-19T23:32:27.214Z,2.78
2023-03-19T23:35:01.440Z,2.77
2023-03-19T23:37:32.972Z,2.75
2023-03-19T23:40:02.336Z,2.74
2023-03-19T23:42:32.585Z,2.68
2023-03-19T23:45:04.240Z,2.68
2023-03-19T23:47:34.447Z,2.65
2023-03-19T23:50:04.491Z,2.64
2023-03-19T23:52:34.162Z,2.62
2023-03-19T23:55:07.386Z,2.60
2023-03-19T23:57:39.744Z,2.56
